Weather History for Las Cruces, NM

Change the Weather History Date:

Friday, November 1, 2013

  Actual Average Record
Temperature  
Mean Temperature 52 °F -  
Max Temperature 66 °F 67 °F 80 °F (2003)
Min Temperature 37 °F 44 °F 35 °F (2005)
Degree Days  
Heating Degree Days 14    
Growing Degree Days 2 (Base 50)    
Moisture  
Dew Point 20 °F    
Average Humidity 30    
Maximum Humidity 47    
Minimum Humidity 15    
Precipitation  
Precipitation 0.00 in - - ()
Sea Level Pressure  
Sea Level Pressure 30.18 in    
Wind  
Wind Speed 6 mph (NNW)    
Max Wind Speed 15 mph    
Max Gust Speed 20 mph    
Visibility 10 miles    
Events      
Averages and records for this station are not official NWS values.
T = Trace of Precipitation, MM = Missing Value Source: NWS Daily Summary

Daily Weather History Graph

Daily Weather History Graph

Search for Another Location

Airport:

Trip Planner

Search our weather history database for the weather conditions in past years. The results will help you decide how hot, cold, wet, or windy it might be!

Date:

Astronomy

Nov. 01, 2013 Rise Set
Actual Time 7:24 AM MDT 6:17 PM MDT
Civil Twilight 6:59 AM MDT 6:42 PM MDT
Nautical Twilight 6:30 AM MDT 7:11 PM MDT
Astronomical Twilight 6:01 AM MDT 7:40 PM MDT
Moon 5:26 AM MDT (11/1) 5:07 PM MDT (11/1)
Length of Visible Light 11h 42m
Length of Day
10h 52m
Waning Crescent, 4% of the Moon is Illuminated
Nov 1
Waning Crescent
Nov 3
New
Nov 9
First Quarter
Nov 17
Full
Nov 25
Last Quarter

Hourly Weather History & Observations

Time (MDT) Temp. Windchill Dew Point Humidity Pressure Visibility Wind Dir Wind Speed Gust Speed Precip Events Conditions
12:15 AM 53.8 °F - 16.3 °F 23% 30.07 in 10.0 mi WNW 10.4 mph - N/A   Clear
3:15 AM 42.3 °F - 17.8 °F 37% 30.09 in 10.0 mi Calm Calm - N/A   Clear
3:55 AM 38.7 °F - 17.8 °F 43% 30.09 in 10.0 mi Calm Calm - N/A   Clear
4:15 AM 37.6 °F 34.0 °F 17.6 °F 44% 30.10 in 10.0 mi WNW 4.6 mph - N/A   Clear
4:35 AM 38.5 °F 33.4 °F 18.5 °F 45% 30.10 in 10.0 mi WNW 6.9 mph - N/A   Clear
4:55 AM 38.1 °F 32.9 °F 18.1 °F 45% 30.11 in 10.0 mi NW 6.9 mph - N/A   Clear
5:15 AM 38.7 °F 34.3 °F 18.0 °F 43% 30.12 in 10.0 mi NW 5.8 mph - N/A   Clear
5:35 AM 39.7 °F 36.5 °F 17.6 °F 41% 30.12 in 10.0 mi NW 4.6 mph - N/A   Clear
5:55 AM 38.8 °F 35.4 °F 17.6 °F 42% 30.13 in 10.0 mi WNW 4.6 mph - N/A   Clear
6:15 AM 40.6 °F - 17.8 °F 40% 30.13 in 10.0 mi Calm Calm - N/A   Clear
6:35 AM 42.3 °F - 18.1 °F 38% 30.15 in 10.0 mi Calm Calm - N/A   Clear
6:55 AM 40.8 °F 36.9 °F 18.5 °F 41% 30.15 in 10.0 mi West 5.8 mph - N/A   Clear
7:15 AM 37.4 °F - 18.7 °F 47% 30.16 in 10.0 mi Calm Calm - N/A   Clear
7:35 AM 39.7 °F - 19.4 °F 44% 30.16 in 10.0 mi Calm Calm - N/A   Clear
7:55 AM 39.4 °F 35.2 °F 19.9 °F 46% 30.17 in 10.0 mi West 5.8 mph - N/A   Clear
8:15 AM 43.3 °F - 20.7 °F 40% 30.18 in 10.0 mi Calm Calm - N/A   Clear
8:35 AM 45.5 °F - 20.3 °F 37% 30.20 in 10.0 mi Calm Calm - N/A   Clear
8:55 AM 48.0 °F - 21.0 °F 34% 30.21 in 10.0 mi Calm Calm - N/A   Clear
9:15 AM 51.8 °F - 21.7 °F 31% 30.22 in 10.0 mi Calm Calm - N/A   Clear
9:35 AM 57.0 °F - 22.1 °F 26% 30.23 in 10.0 mi North 15.0 mph - N/A   Clear
9:55 AM 57.4 °F - 22.6 °F 26% 30.23 in 10.0 mi NNE 12.7 mph 18.4 mph N/A   Clear
10:15 AM 58.6 °F - 22.1 °F 24% 30.23 in 10.0 mi NNW 12.7 mph - N/A   Clear
10:35 AM 59.0 °F - 22.5 °F 24% 30.23 in 10.0 mi NNW 11.5 mph 17.3 mph N/A   Clear
10:55 AM 60.8 °F - 22.1 °F 23% 30.23 in 10.0 mi North 11.5 mph - N/A   Clear
11:15 AM 61.2 °F - 22.6 °F 23% 30.24 in 10.0 mi NNE 12.7 mph 19.6 mph N/A   Clear
11:35 AM 61.5 °F - 22.8 °F 23% 30.24 in 10.0 mi North 13.8 mph 19.6 mph N/A   Clear
11:55 AM 62.4 °F - 22.6 °F 22% 30.24 in 10.0 mi North 13.8 mph - N/A   Clear
12:15 PM 63.1 °F - 22.8 °F 21% 30.23 in 10.0 mi NNW 13.8 mph - N/A   Clear
12:35 PM 63.9 °F - 22.6 °F 21% 30.23 in 10.0 mi North 13.8 mph 17.3 mph N/A   Clear
12:55 PM 64.8 °F - 22.8 °F 20% 30.22 in 10.0 mi North 10.4 mph 16.1 mph N/A   Clear
1:15 PM 64.6 °F - 22.8 °F 20% 30.21 in 10.0 mi NNE 10.4 mph - N/A   Clear
1:35 PM 64.9 °F - 22.5 °F 20% 30.20 in 10.0 mi WNW 9.2 mph 17.3 mph N/A   Clear
1:55 PM 65.1 °F - 21.9 °F 19% 30.19 in 10.0 mi NW 12.7 mph 17.3 mph N/A   Clear
2:15 PM 65.5 °F - 21.4 °F 19% 30.18 in 10.0 mi NNW 11.5 mph - N/A   Clear
3:55 PM 66.6 °F - 18.5 °F 16% 30.16 in 10.0 mi NNW 6.9 mph - N/A   Clear
4:15 PM 66.7 °F - 18.3 °F 16% 30.15 in 10.0 mi NNE 8.1 mph - N/A   Clear
4:35 PM 66.9 °F - 18.1 °F 15% 30.15 in 10.0 mi North 8.1 mph - N/A   Clear
4:55 PM 66.6 °F - 18.5 °F 16% 30.15 in 10.0 mi NNE 10.4 mph - N/A   Clear
5:15 PM 66.2 °F - 18.7 °F 16% 30.15 in 10.0 mi NNE 6.9 mph - N/A   Clear
5:35 PM 65.5 °F - 18.3 °F 16% 30.15 in 10.0 mi NNE 6.9 mph - N/A   Clear
5:55 PM 64.2 °F - 18.5 °F 17% 30.16 in 10.0 mi NE 4.6 mph - N/A   Clear
6:15 PM 61.2 °F - 19.2 °F 20% 30.16 in 10.0 mi NNE 3.5 mph - N/A   Clear
6:35 PM 57.4 °F - 19.2 °F 23% 30.16 in 10.0 mi NNE 5.8 mph - N/A   Clear
6:55 PM 54.7 °F - 19.0 °F 25% 30.16 in 10.0 mi NE 4.6 mph - N/A   Clear
7:15 PM 54.1 °F - 18.5 °F 25% 30.17 in 10.0 mi North 4.6 mph - N/A   Clear
7:35 PM 52.7 °F - 18.7 °F 26% 30.19 in 10.0 mi North 3.5 mph - N/A   Clear
7:55 PM 49.5 °F - 18.5 °F 29% 30.19 in 10.0 mi NNW 3.5 mph - N/A   Clear
8:15 PM 49.5 °F - 18.3 °F 29% 30.20 in 10.0 mi NNW 5.8 mph - N/A   Clear
8:35 PM 47.7 °F - 17.8 °F 30% 30.21 in 10.0 mi WNW 4.6 mph - N/A   Clear
8:55 PM 48.7 °F - 18.3 °F 30% 30.21 in 10.0 mi NW 5.8 mph - N/A   Clear
9:15 PM 46.9 °F - 18.0 °F 32% 30.22 in 10.0 mi NW 3.5 mph - N/A   Clear
9:35 PM 46.0 °F 44.8 °F 17.8 °F 32% 30.23 in 10.0 mi SSW 3.5 mph - N/A   Clear
9:55 PM 46.9 °F - 18.5 °F 32% 30.23 in 10.0 mi SW 3.5 mph - N/A   Clear
10:15 PM 43.7 °F 41.1 °F 18.5 °F 36% 30.24 in 10.0 mi West 4.6 mph - N/A   Clear
10:35 PM 43.3 °F 41.7 °F 18.1 °F 36% 30.24 in 10.0 mi West 3.5 mph - N/A   Clear
10:55 PM 43.9 °F - 18.3 °F 36% 30.25 in 10.0 mi Calm Calm - N/A   Clear
11:15 PM 43.2 °F 41.5 °F 18.0 °F 36% 30.25 in 10.0 mi North 3.5 mph - N/A   Clear
11:35 PM 45.1 °F 42.0 °F 18.1 °F 34% 30.25 in 10.0 mi North 5.8 mph - N/A   Clear
11:55 PM 44.2 °F - 18.0 °F 35% 30.25 in 10.0 mi Calm Calm - N/A   Clear